sensor_id;sensor_type;location;lat;lon;timestamp;temperature;humidity
7290;DHT22;63176;52.678;13.250;2023-03-14T00:00:28;11.70;99.90
7290;DHT22;63176;52.678;13.250;2023-03-14T00:02:54;11.80;99.90
7290;DHT22;63176;52.678;13.250;2023-03-14T00:05:19;11.70;99.90
7290;DHT22;63176;52.678;13.250;2023-03-14T00:07:45;11.70;99.90
7290;DHT22;63176;52.678;13.250;2023-03-14T00:10:13;11.70;99.90
7290;DHT22;63176;52.678;13.250;2023-03-14T00:12:40;11.60;99.90
7290;DHT22;63176;52.678;13.250;2023-03-14T00:15:07;11.60;99.90
7290;DHT22;63176;52.678;13.250;2023-03-14T00:17:34;11.60;99.90
7290;DHT22;63176;52.678;13.250;2023-03-14T00:19:59;11.60;99.90
7290;DHT22;63176;52.678;13.250;2023-03-14T00:22:34;11.50;99.90
7290;DHT22;63176;52.678;13.250;2023-03-14T00:24:59;11.50;99.90
7290;DHT22;63176;52.678;13.250;2023-03-14T00:27:25;11.40;99.90
7290;DHT22;63176;52.678;13.250;2023-03-14T00:29:51;11.50;99.90
7290;DHT22;63176;52.678;13.250;2023-03-14T00:32:16;11.40;99.90
7290;DHT22;63176;52.678;13.250;2023-03-14T00:34:42;11.50;99.90
7290;DHT22;63176;52.678;13.250;2023-03-14T00:37:07;11.50;99.90
7290;DHT22;63176;52.678;13.250;2023-03-14T00:39:33;11.50;99.90
7290;DHT22;63176;52.678;13.250;2023-03-14T00:41:59;11.50;99.90
7290;DHT22;63176;52.678;13.250;2023-03-14T00:44:24;11.50;99.90
7290;DHT22;63176;52.678;13.250;2023-03-14T00:46:50;11.40;99.90
7290;DHT22;63176;52.678;13.250;2023-03-14T00:49:15;11.40;99.90
7290;DHT22;63176;52.678;13.250;2023-03-14T00:51:41;11.40;99.90
7290;DHT22;63176;52.678;13.250;2023-03-14T00:54:07;11.30;99.90
7290;DHT22;63176;52.678;13.250;2023-03-14T00:56:33;11.30;99.90
7290;DHT22;63176;52.678;13.250;2023-03-14T00:58:58;11.30;99.90
7290;DHT22;63176;52.678;13.250;2023-03-14T01:01:24;11.20;99.90
7290;DHT22;63176;52.678;13.250;2023-03-14T01:03:54;11.20;99.90
7290;DHT22;63176;52.678;13.250;2023-03-14T01:06:23;11.20;99.90
7290;DHT22;63176;52.678;13.250;2023-03-14T01:08:50;11.20;99.90
7290;DHT22;63176;52.678;13.250;2023-03-14T01:11:19;11.20;99.90
7290;DHT22;63176;52.678;13.250;2023-03-14T01:13:45;11.20;99.90
7290;DHT22;63176;52.678;13.250;2023-03-14T01:16:12;11.20;99.90
7290;DHT22;63176;52.678;13.250;2023-03-14T01:18:39;11.20;99.90
7290;DHT22;63176;52.678;13.250;2023-03-14T01:21:32;11.20;99.90
7290;DHT22;63176;52.678;13.250;2023-03-14T01:24:00;11.20;99.90
7290;DHT22;63176;52.678;13.250;2023-03-14T01:26:28;11.10;99.90
7290;DHT22;63176;52.678;13.250;2023-03-14T01:28:55;11.10;99.90
7290;DHT22;63176;52.678;13.250;2023-03-14T01:31:22;11.10;99.90
7290;DHT22;63176;52.678;13.250;2023-03-14T01:33:48;11.10;99.90
7290;DHT22;63176;52.678;13.250;2023-03-14T01:36:14;11.10;99.90
7290;DHT22;63176;52.678;13.250;2023-03-14T01:38:40;11.10;99.90
7290;DHT22;63176;52.678;13.250;2023-03-14T01:41:08;11.00;99.90
7290;DHT22;63176;52.678;13.250;2023-03-14T01:43:37;11.10;99.90
7290;DHT22;63176;52.678;13.250;2023-03-14T01:49:08;11.20;99.90
7290;DHT22;63176;52.678;13.250;2023-03-14T01:57:14;11.30;99.90
7290;DHT22;63176;52.678;13.250;2023-03-14T01:59:45;11.20;99.90
7290;DHT22;63176;52.678;13.250;2023-03-14T02:02:12;11.20;99.90
7290;DHT22;63176;52.678;13.250;2023-03-14T02:04:40;11.30;99.90
7290;DHT22;63176;52.678;13.250;2023-03-14T02:07:17;11.30;99.90
7290;DHT22;63176;52.678;13.250;2023-03-14T02:09:45;11.20;99.90
7290;DHT22;63176;52.678;13.250;2023-03-14T02:12:14;11.20;99.90
7290;DHT22;63176;52.678;13.250;2023-03-14T02:14:40;11.20;99.90
7290;DHT22;63176;52.678;13.250;2023-03-14T02:17:12;11.20;99.90
7290;DHT22;63176;52.678;13.250;2023-03-14T02:22:13;11.20;99.90
7290;DHT22;63176;52.678;13.250;2023-03-14T02:24:56;11.20;99.90
7290;DHT22;63176;52.678;13.250;2023-03-14T02:27:24;11.20;99.90
7290;DHT22;63176;52.678;13.250;2023-03-14T02:29:59;11.10;99.90
7290;DHT22;63176;52.678;13.250;2023-03-14T02:32:28;11.10;99.90
7290;DHT22;63176;52.678;13.250;2023-03-14T02:34:57;11.10;99.90
7290;DHT22;63176;52.678;13.250;2023-03-14T02:37:27;11.10;99.90
7290;DHT22;63176;52.678;13.250;2023-03-14T02:39:54;11.00;99.90
7290;DHT22;63176;52.678;13.250;2023-03-14T02:42:20;11.00;99.90
7290;DHT22;63176;52.678;13.250;2023-03-14T02:47:39;11.00;99.90
7290;DHT22;63176;52.678;13.250;2023-03-14T02:50:11;11.00;99.90
7290;DHT22;63176;52.678;13.250;2023-03-14T02:52:38;11.00;99.90
7290;DHT22;63176;52.678;13.250;2023-03-14T02:55:04;11.00;99.90
7290;DHT22;63176;52.678;13.250;2023-03-14T02:57:30;11.10;99.90
7290;DHT22;63176;52.678;13.250;2023-03-14T02:59:59;11.10;99.90
7290;DHT22;63176;52.678;13.250;2023-03-14T03:02:29;11.10;99.90
7290;DHT22;63176;52.678;13.250;2023-03-14T03:04:54;11.00;99.90
7290;DHT22;63176;52.678;13.250;2023-03-14T03:07:20;11.00;99.90
7290;DHT22;63176;52.678;13.250;2023-03-14T03:09:46;11.00;99.90
7290;DHT22;63176;52.678;13.250;2023-03-14T03:12:12;11.00;99.90
7290;DHT22;63176;52.678;13.250;2023-03-14T03:14:37;11.10;99.90
7290;DHT22;63176;52.678;13.250;2023-03-14T03:17:04;11.00;99.90
7290;DHT22;63176;52.678;13.250;2023-03-14T03:19:30;11.10;99.90
7290;DHT22;63176;52.678;13.250;2023-03-14T03:21:56;11.00;99.90
7290;DHT22;63176;52.678;13.250;2023-03-14T03:24:23;11.00;99.90
7290;DHT22;63176;52.678;13.250;2023-03-14T03:26:49;10.90;99.90
7290;DHT22;63176;52.678;13.250;2023-03-14T03:29:14;11.00;99.90
7290;DHT22;63176;52.678;13.250;2023-03-14T03:31:40;11.00;99.90
7290;DHT22;63176;52.678;13.250;2023-03-14T03:34:06;11.00;99.90
7290;DHT22;63176;52.678;13.250;2023-03-14T03:36:31;11.00;99.90
7290;DHT22;63176;52.678;13.250;2023-03-14T03:38:57;11.00;99.90
7290;DHT22;63176;52.678;13.250;2023-03-14T03:41:23;11.00;99.90
7290;DHT22;63176;52.678;13.250;2023-03-14T03:43:48;11.00;99.90
7290;DHT22;63176;52.678;13.250;2023-03-14T03:46:14;11.00;99.90
7290;DHT22;63176;52.678;13.250;2023-03-14T03:48:40;11.00;99.90
7290;DHT22;63176;52.678;13.250;2023-03-14T03:51:06;11.00;99.90
7290;DHT22;63176;52.678;13.250;2023-03-14T03:53:32;11.00;99.90
7290;DHT22;63176;52.678;13.250;2023-03-14T03:55:57;11.00;99.90
7290;DHT22;63176;52.678;13.250;2023-03-14T03:58:23;10.90;99.90
7290;DHT22;63176;52.678;13.250;2023-03-14T04:00:49;10.90;99.90
7290;DHT22;63176;52.678;13.250;2023-03-14T04:03:14;11.00;99.90
7290;DHT22;63176;52.678;13.250;2023-03-14T04:05:40;11.00;99.90
7290;DHT22;63176;52.678;13.250;2023-03-14T04:08:06;11.00;99.90
7290;DHT22;63176;52.678;13.250;2023-03-14T04:10:35;11.00;99.90
7290;DHT22;63176;52.678;13.250;2023-03-14T04:13:00;11.00;99.90
7290;DHT22;63176;52.678;13.250;2023-03-14T04:15:26;10.90;99.90
7290;DHT22;63176;52.678;13.250;2023-03-14T04:17:57;10.90;99.90
7290;DHT22;63176;52.678;13.250;2023-03-14T04:20:23;10.90;99.90
7290;DHT22;63176;52.678;13.250;2023-03-14T04:22:48;10.90;99.90
7290;DHT22;63176;52.678;13.250;2023-03-14T04:25:14;10.90;99.90
7290;DHT22;63176;52.678;13.250;2023-03-14T04:27:41;10.90;99.90
7290;DHT22;63176;52.678;13.250;2023-03-14T04:30:10;10.80;99.90
7290;DHT22;63176;52.678;13.250;2023-03-14T04:32:35;10.90;99.90
7290;DHT22;63176;52.678;13.250;2023-03-14T04:35:04;10.80;99.90
7290;DHT22;63176;52.678;13.250;2023-03-14T04:37:30;10.90;99.90
7290;DHT22;63176;52.678;13.250;2023-03-14T04:39:55;10.90;99.90
7290;DHT22;63176;52.678;13.250;2023-03-14T04:42:21;10.90;99.90
7290;DHT22;63176;52.678;13.250;2023-03-14T04:44:46;10.90;99.90
7290;DHT22;63176;52.678;13.250;2023-03-14T04:47:14;10.90;99.90
7290;DHT22;63176;52.678;13.250;2023-03-14T04:49:40;10.90;99.90
7290;DHT22;63176;52.678;13.250;2023-03-14T04:52:05;10.90;99.90
7290;DHT22;63176;52.678;13.250;2023-03-14T04:54:31;10.90;99.90
7290;DHT22;63176;52.678;13.250;2023-03-14T04:56:57;10.90;99.90
7290;DHT22;63176;52.678;13.250;2023-03-14T04:59:22;10.90;99.90
7290;DHT22;63176;52.678;13.250;2023-03-14T05:01:48;10.90;99.90
7290;DHT22;63176;52.678;13.250;2023-03-14T05:04:15;10.80;99.90
7290;DHT22;63176;52.678;13.250;2023-03-14T05:06:40;10.80;99.90
7290;DHT22;63176;52.678;13.250;2023-03-14T05:09:07;10.80;99.90
7290;DHT22;63176;52.678;13.250;2023-03-14T05:11:33;10.90;99.90
7290;DHT22;63176;52.678;13.250;2023-03-14T05:13:59;10.80;99.90
7290;DHT22;63176;52.678;13.250;2023-03-14T05:16:24;10.90;99.90
7290;DHT22;63176;52.678;13.250;2023-03-14T05:18:50;10.90;99.90
7290;DHT22;63176;52.678;13.250;2023-03-14T05:21:16;10.90;99.90
7290;DHT22;63176;52.678;13.250;2023-03-14T05:23:42;10.90;99.90
7290;DHT22;63176;52.678;13.250;2023-03-14T05:26:07;10.90;99.90
7290;DHT22;63176;52.678;13.250;2023-03-14T05:28:33;10.90;99.90
7290;DHT22;63176;52.678;13.250;2023-03-14T05:30:58;11.00;99.90
7290;DHT22;63176;52.678;13.250;2023-03-14T05:33:24;10.90;99.90
7290;DHT22;63176;52.678;13.250;2023-03-14T05:35:50;10.90;99.90
7290;DHT22;63176;52.678;13.250;2023-03-14T05:38:15;10.90;99.90
7290;DHT22;63176;52.678;13.250;2023-03-14T05:40:41;10.90;99.90
7290;DHT22;63176;52.678;13.250;2023-03-14T05:43:07;10.90;99.90
7290;DHT22;63176;52.678;13.250;2023-03-14T05:45:34;10.80;99.90
7290;DHT22;63176;52.678;13.250;2023-03-14T05:48:00;10.90;99.90
7290;DHT22;63176;52.678;13.250;2023-03-14T05:50:26;10.80;99.90
7290;DHT22;63176;52.678;13.250;2023-03-14T05:52:51;11.00;99.90
7290;DHT22;63176;52.678;13.250;2023-03-14T05:55:17;10.90;99.90
7290;DHT22;63176;52.678;13.250;2023-03-14T05:57:43;10.90;99.90
7290;DHT22;63176;52.678;13.250;2023-03-14T06:00:09;10.90;99.90
7290;DHT22;63176;52.678;13.250;2023-03-14T06:02:35;10.90;99.90
7290;DHT22;63176;52.678;13.250;2023-03-14T06:05:00;10.90;99.90
7290;DHT22;63176;52.678;13.250;2023-03-14T06:07:26;10.80;99.90
7290;DHT22;63176;52.678;13.250;2023-03-14T06:09:51;10.90;99.90
7290;DHT22;63176;52.678;13.250;2023-03-14T06:12:17;10.90;99.90
7290;DHT22;63176;52.678;13.250;2023-03-14T06:14:43;10.90;99.90
7290;DHT22;63176;52.678;13.250;2023-03-14T06:17:08;10.80;99.90
7290;DHT22;63176;52.678;13.250;2023-03-14T06:19:34;10.90;99.90
7290;DHT22;63176;52.678;13.250;2023-03-14T06:21:59;10.90;99.90
7290;DHT22;63176;52.678;13.250;2023-03-14T06:24:25;11.00;99.90
7290;DHT22;63176;52.678;13.250;2023-03-14T06:26:50;10.90;99.90
7290;DHT22;63176;52.678;13.250;2023-03-14T06:29:16;11.00;99.90
7290;DHT22;63176;52.678;13.250;2023-03-14T06:31:42;11.00;99.90
7290;DHT22;63176;52.678;13.250;2023-03-14T06:34:07;11.00;99.90
7290;DHT22;63176;52.678;13.250;2023-03-14T06:36:33;11.00;99.90
7290;DHT22;63176;52.678;13.250;2023-03-14T06:38:59;11.10;99.90
7290;DHT22;63176;52.678;13.250;2023-03-14T06:41:24;10.80;99.90
7290;DHT22;63176;52.678;13.250;2023-03-14T06:43:52;11.00;99.90
7290;DHT22;63176;52.678;13.250;2023-03-14T06:46:17;11.10;99.90
7290;DHT22;63176;52.678;13.250;2023-03-14T06:48:43;11.20;99.90
7290;DHT22;63176;52.678;13.250;2023-03-14T06:51:09;11.20;99.90
7290;DHT22;63176;52.678;13.250;2023-03-14T06:53:35;11.20;99.90
7290;DHT22;63176;52.678;13.250;2023-03-14T06:56:00;11.20;99.90
7290;DHT22;63176;52.678;13.250;2023-03-14T06:58:26;11.30;99.90
7290;DHT22;63176;52.678;13.250;2023-03-14T07:00:53;11.30;99.90
7290;DHT22;63176;52.678;13.250;2023-03-14T07:03:20;11.30;99.90
7290;DHT22;63176;52.678;13.250;2023-03-14T07:05:45;11.40;99.90
7290;DHT22;63176;52.678;13.250;2023-03-14T07:08:11;11.50;99.90
7290;DHT22;63176;52.678;13.250;2023-03-14T07:10:37;11.50;99.90
7290;DHT22;63176;52.678;13.250;2023-03-14T07:13:02;11.50;99.90
7290;DHT22;63176;52.678;13.250;2023-03-14T07:15:28;11.60;99.90
7290;DHT22;63176;52.678;13.250;2023-03-14T07:17:54;11.50;99.90
7290;DHT22;63176;52.678;13.250;2023-03-14T07:20:19;11.50;99.90
7290;DHT22;63176;52.678;13.250;2023-03-14T07:22:48;11.50;99.90
7290;DHT22;63176;52.678;13.250;2023-03-14T07:25:15;11.50;99.90
7290;DHT22;63176;52.678;13.250;2023-03-14T07:27:43;11.60;99.90
7290;DHT22;63176;52.678;13.250;2023-03-14T07:30:10;11.70;99.90
7290;DHT22;63176;52.678;13.250;2023-03-14T07:32:36;11.70;99.90
7290;DHT22;63176;52.678;13.250;2023-03-14T07:35:02;11.70;99.90
7290;DHT22;63176;52.678;13.250;2023-03-14T07:37:27;11.80;99.90
7290;DHT22;63176;52.678;13.250;2023-03-14T07:39:53;11.70;99.90
7290;DHT22;63176;52.678;13.250;2023-03-14T07:42:19;11.70;99.90
7290;DHT22;63176;52.678;13.250;2023-03-14T07:44:44;11.80;99.90
7290;DHT22;63176;52.678;13.250;2023-03-14T07:47:10;11.90;99.90
7290;DHT22;63176;52.678;13.250;2023-03-14T07:49:35;12.00;99.90
7290;DHT22;63176;52.678;13.250;2023-03-14T07:52:01;12.30;99.90
7290;DHT22;63176;52.678;13.250;2023-03-14T07:54:27;12.40;99.90
7290;DHT22;63176;52.678;13.250;2023-03-14T07:56:52;12.50;99.90
7290;DHT22;63176;52.678;13.250;2023-03-14T07:59:18;12.50;99.90
7290;DHT22;63176;52.678;13.250;2023-03-14T08:01:44;12.40;99.90
7290;DHT22;63176;52.678;13.250;2023-03-14T08:04:10;12.50;99.90
7290;DHT22;63176;52.678;13.250;2023-03-14T08:06:36;12.60;99.90
7290;DHT22;63176;52.678;13.250;2023-03-14T08:09:03;12.70;99.90
7290;DHT22;63176;52.678;13.250;2023-03-14T08:11:29;12.70;99.90
7290;DHT22;63176;52.678;13.250;2023-03-14T08:13:55;12.70;99.90
7290;DHT22;63176;52.678;13.250;2023-03-14T08:16:21;12.70;99.90
7290;DHT22;63176;52.678;13.250;2023-03-14T08:18:47;12.70;99.90
7290;DHT22;63176;52.678;13.250;2023-03-14T08:21:14;12.70;99.90
7290;DHT22;63176;52.678;13.250;2023-03-14T08:23:40;12.70;99.90
7290;DHT22;63176;52.678;13.250;2023-03-14T08:26:06;12.60;99.90
7290;DHT22;63176;52.678;13.250;2023-03-14T08:28:32;12.60;99.90
7290;DHT22;63176;52.678;13.250;2023-03-14T08:30:59;12.70;99.90
7290;DHT22;63176;52.678;13.250;2023-03-14T08:33:26;12.80;99.90
7290;DHT22;63176;52.678;13.250;2023-03-14T08:35:57;12.80;99.90
7290;DHT22;63176;52.678;13.250;2023-03-14T08:38:23;12.80;99.90
7290;DHT22;63176;52.678;13.250;2023-03-14T08:40:48;12.80;99.90
7290;DHT22;63176;52.678;13.250;2023-03-14T08:43:15;12.80;99.90
7290;DHT22;63176;52.678;13.250;2023-03-14T08:45:41;12.80;99.90
7290;DHT22;63176;52.678;13.250;2023-03-14T08:48:07;12.80;99.90
7290;DHT22;63176;52.678;13.250;2023-03-14T08:50:33;12.80;99.90
7290;DHT22;63176;52.678;13.250;2023-03-14T08:52:58;12.80;99.90
7290;DHT22;63176;52.678;13.250;2023-03-14T08:55:26;13.00;99.90
7290;DHT22;63176;52.678;13.250;2023-03-14T08:57:53;13.10;99.90
7290;DHT22;63176;52.678;13.250;2023-03-14T09:00:19;13.20;99.90
7290;DHT22;63176;52.678;13.250;2023-03-14T09:02:45;13.20;99.90
7290;DHT22;63176;52.678;13.250;2023-03-14T09:05:11;13.10;99.90
7290;DHT22;63176;52.678;13.250;2023-03-14T09:07:38;13.10;99.90
7290;DHT22;63176;52.678;13.250;2023-03-14T09:10:05;13.00;99.90
7290;DHT22;63176;52.678;13.250;2023-03-14T09:12:31;13.00;99.90
7290;DHT22;63176;52.678;13.250;2023-03-14T09:14:57;13.10;99.90
7290;DHT22;63176;52.678;13.250;2023-03-14T09:17:22;13.30;99.90
7290;DHT22;63176;52.678;13.250;2023-03-14T09:19:48;13.50;99.90
7290;DHT22;63176;52.678;13.250;2023-03-14T09:22:14;14.00;99.90
7290;DHT22;63176;52.678;13.250;2023-03-14T09:24:40;14.70;99.90
7290;DHT22;63176;52.678;13.250;2023-03-14T09:27:06;15.40;99.90
7290;DHT22;63176;52.678;13.250;2023-03-14T09:29:32;15.70;99.90
7290;DHT22;63176;52.678;13.250;2023-03-14T09:31:58;15.60;99.90
7290;DHT22;63176;52.678;13.250;2023-03-14T09:34:24;15.40;99.90
7290;DHT22;63176;52.678;13.250;2023-03-14T09:36:50;15.10;99.90
7290;DHT22;63176;52.678;13.250;2023-03-14T09:39:16;14.80;99.90
7290;DHT22;63176;52.678;13.250;2023-03-14T09:41:50;14.60;99.90
7290;DHT22;63176;52.678;13.250;2023-03-14T09:44:38;14.40;99.90
7290;DHT22;63176;52.678;13.250;2023-03-14T09:47:06;14.30;99.90
7290;DHT22;63176;52.678;13.250;2023-03-14T09:49:42;14.10;99.90
7290;DHT22;63176;52.678;13.250;2023-03-14T09:52:25;13.90;99.90
7290;DHT22;63176;52.678;13.250;2023-03-14T09:55:19;13.80;99.90
7290;DHT22;63176;52.678;13.250;2023-03-14T09:57:48;13.70;99.90
7290;DHT22;63176;52.678;13.250;2023-03-14T10:00:18;13.60;99.90
7290;DHT22;63176;52.678;13.250;2023-03-14T10:05:37;13.60;99.90
7290;DHT22;63176;52.678;13.250;2023-03-14T10:08:03;13.50;99.90
7290;DHT22;63176;52.678;13.250;2023-03-14T10:10:28;13.50;99.90
7290;DHT22;63176;52.678;13.250;2023-03-14T10:12:59;13.50;99.90
7290;DHT22;63176;52.678;13.250;2023-03-14T10:15:29;13.50;99.90
7290;DHT22;63176;52.678;13.250;2023-03-14T10:17:58;13.50;99.90
7290;DHT22;63176;52.678;13.250;2023-03-14T10:23:21;13.40;99.90
7290;DHT22;63176;52.678;13.250;2023-03-14T10:26:08;13.30;99.90
7290;DHT22;63176;52.678;13.250;2023-03-14T10:31:05;13.20;99.90
7290;DHT22;63176;52.678;13.250;2023-03-14T10:33:33;13.20;99.90
7290;DHT22;63176;52.678;13.250;2023-03-14T10:38:32;13.20;99.90
7290;DHT22;63176;52.678;13.250;2023-03-14T10:40:58;13.20;99.90
7290;DHT22;63176;52.678;13.250;2023-03-14T10:43:32;13.10;99.90
7290;DHT22;63176;52.678;13.250;2023-03-14T10:46:02;13.10;99.90
7290;DHT22;63176;52.678;13.250;2023-03-14T10:51:04;13.20;99.90
7290;DHT22;63176;52.678;13.250;2023-03-14T10:53:45;13.20;99.90
7290;DHT22;63176;52.678;13.250;2023-03-14T10:56:19;13.10;99.90
7290;DHT22;63176;52.678;13.250;2023-03-14T10:58:48;13.10;99.90
7290;DHT22;63176;52.678;13.250;2023-03-14T11:09:38;13.10;99.90
7290;DHT22;63176;52.678;13.250;2023-03-14T11:12:36;13.20;99.90
7290;DHT22;63176;52.678;13.250;2023-03-14T11:26:59;12.90;99.90
7290;DHT22;63176;52.678;13.250;2023-03-14T11:29:41;12.90;99.90
7290;DHT22;63176;52.678;13.250;2023-03-14T11:32:19;12.90;99.90
7290;DHT22;63176;52.678;13.250;2023-03-14T11:34:52;12.90;99.90
7290;DHT22;63176;52.678;13.250;2023-03-14T11:37:33;12.90;99.90
7290;DHT22;63176;52.678;13.250;2023-03-14T11:40:13;12.90;99.90
7290;DHT22;63176;52.678;13.250;2023-03-14T11:42:41;12.90;99.90
7290;DHT22;63176;52.678;13.250;2023-03-14T11:45:18;12.90;99.90
7290;DHT22;63176;52.678;13.250;2023-03-14T11:47:51;12.90;99.90
7290;DHT22;63176;52.678;13.250;2023-03-14T11:50:27;12.90;99.90
7290;DHT22;63176;52.678;13.250;2023-03-14T11:53:19;12.90;99.90
7290;DHT22;63176;52.678;13.250;2023-03-14T11:55:47;12.90;99.90
7290;DHT22;63176;52.678;13.250;2023-03-14T11:58:23;12.90;99.90
7290;DHT22;63176;52.678;13.250;2023-03-14T12:00:51;13.00;99.90
7290;DHT22;63176;52.678;13.250;2023-03-14T12:03:44;13.00;99.90
7290;DHT22;63176;52.678;13.250;2023-03-14T12:09:01;13.00;99.90
7290;DHT22;63176;52.678;13.250;2023-03-14T12:11:45;12.90;99.90
7290;DHT22;63176;52.678;13.250;2023-03-14T12:14:34;12.80;99.90
7290;DHT22;63176;52.678;13.250;2023-03-14T12:19:44;12.80;99.90
7290;DHT22;63176;52.678;13.250;2023-03-14T12:22:42;12.80;99.90
7290;DHT22;63176;52.678;13.250;2023-03-14T12:25:29;12.80;99.90
7290;DHT22;63176;52.678;13.250;2023-03-14T12:35:47;13.70;99.90
7290;DHT22;63176;52.678;13.250;2023-03-14T12:38:27;13.90;99.90
7290;DHT22;63176;52.678;13.250;2023-03-14T12:41:12;14.10;99.90
7290;DHT22;63176;52.678;13.250;2023-03-14T12:43:39;14.00;99.90
7290;DHT22;63176;52.678;13.250;2023-03-14T12:48:53;14.10;99.90
7290;DHT22;63176;52.678;13.250;2023-03-14T12:51:27;14.10;99.90
7290;DHT22;63176;52.678;13.250;2023-03-14T12:59:34;14.20;99.90
7290;DHT22;63176;52.678;13.250;2023-03-14T13:05:00;14.10;99.90
7290;DHT22;63176;52.678;13.250;2023-03-14T13:07:31;14.20;99.90
7290;DHT22;63176;52.678;13.250;2023-03-14T13:10:29;14.40;99.90
7290;DHT22;63176;52.678;13.250;2023-03-14T13:13:19;14.40;99.90
7290;DHT22;63176;52.678;13.250;2023-03-14T13:15:47;14.40;99.90
7290;DHT22;63176;52.678;13.250;2023-03-14T13:18:19;14.50;99.90
7290;DHT22;63176;52.678;13.250;2023-03-14T13:21:03;14.50;99.90
7290;DHT22;63176;52.678;13.250;2023-03-14T13:23:32;14.70;99.90
7290;DHT22;63176;52.678;13.250;2023-03-14T13:26:00;14.70;99.90
7290;DHT22;63176;52.678;13.250;2023-03-14T13:28:27;14.80;99.90
7290;DHT22;63176;52.678;13.250;2023-03-14T13:30:58;14.90;99.90
7290;DHT22;63176;52.678;13.250;2023-03-14T13:33:24;15.00;99.90
7290;DHT22;63176;52.678;13.250;2023-03-14T13:36:02;15.10;99.90
7290;DHT22;63176;52.678;13.250;2023-03-14T13:38:30;15.20;99.90
7290;DHT22;63176;52.678;13.250;2023-03-14T13:40:58;15.30;99.90
7290;DHT22;63176;52.678;13.250;2023-03-14T13:46:23;15.30;99.90
7290;DHT22;63176;52.678;13.250;2023-03-14T13:48:55;15.30;99.90
7290;DHT22;63176;52.678;13.250;2023-03-14T13:51:21;15.40;99.90
7290;DHT22;63176;52.678;13.250;2023-03-14T13:53:48;15.40;99.90
7290;DHT22;63176;52.678;13.250;2023-03-14T13:56:16;15.40;99.90
7290;DHT22;63176;52.678;13.250;2023-03-14T13:58:43;15.30;99.90
7290;DHT22;63176;52.678;13.250;2023-03-14T14:03:57;15.20;99.90
7290;DHT22;63176;52.678;13.250;2023-03-14T14:06:35;15.10;99.90
7290;DHT22;63176;52.678;13.250;2023-03-14T14:09:26;15.10;99.90
7290;DHT22;63176;52.678;13.250;2023-03-14T14:12:05;15.00;99.90
7290;DHT22;63176;52.678;13.250;2023-03-14T14:17:15;14.90;99.90
7290;DHT22;63176;52.678;13.250;2023-03-14T14:19:43;14.80;99.90
7290;DHT22;63176;52.678;13.250;2023-03-14T14:22:10;14.80;99.90
7290;DHT22;63176;52.678;13.250;2023-03-14T14:24:37;14.70;99.90
7290;DHT22;63176;52.678;13.250;2023-03-14T14:27:33;14.60;99.90
7290;DHT22;63176;52.678;13.250;2023-03-14T14:30:31;14.50;99.90
7290;DHT22;63176;52.678;13.250;2023-03-14T14:33:19;14.40;99.90
7290;DHT22;63176;52.678;13.250;2023-03-14T14:35:56;14.30;99.90
7290;DHT22;63176;52.678;13.250;2023-03-14T14:38:24;14.20;99.90
7290;DHT22;63176;52.678;13.250;2023-03-14T14:40:53;14.20;99.90
7290;DHT22;63176;52.678;13.250;2023-03-14T14:43:22;14.00;99.90
7290;DHT22;63176;52.678;13.250;2023-03-14T14:45:53;13.80;99.90
7290;DHT22;63176;52.678;13.250;2023-03-14T14:48:24;13.60;99.90
7290;DHT22;63176;52.678;13.250;2023-03-14T14:51:00;13.40;99.90
7290;DHT22;63176;52.678;13.250;2023-03-14T14:53:40;13.20;99.90
7290;DHT22;63176;52.678;13.250;2023-03-14T14:56:26;13.00;99.90
7290;DHT22;63176;52.678;13.250;2023-03-14T14:58:58;12.90;99.90
7290;DHT22;63176;52.678;13.250;2023-03-14T15:01:25;12.80;99.90
7290;DHT22;63176;52.678;13.250;2023-03-14T15:03:56;12.70;99.90
7290;DHT22;63176;52.678;13.250;2023-03-14T15:06:24;12.30;99.90
7290;DHT22;63176;52.678;13.250;2023-03-14T15:08:53;11.30;99.90
7290;DHT22;63176;52.678;13.250;2023-03-14T15:11:21;10.40;99.90
7290;DHT22;63176;52.678;13.250;2023-03-14T15:13:48;9.70;99.90
7290;DHT22;63176;52.678;13.250;2023-03-14T15:16:18;9.20;99.90
7290;DHT22;63176;52.678;13.250;2023-03-14T15:18:47;8.90;99.90
7290;DHT22;63176;52.678;13.250;2023-03-14T15:21:15;8.60;99.90
7290;DHT22;63176;52.678;13.250;2023-03-14T15:23:40;8.30;99.90
7290;DHT22;63176;52.678;13.250;2023-03-14T15:26:21;8.10;99.90
7290;DHT22;63176;52.678;13.250;2023-03-14T15:28:48;7.90;99.90
7290;DHT22;63176;52.678;13.250;2023-03-14T15:31:15;7.80;99.90
7290;DHT22;63176;52.678;13.250;2023-03-14T15:33:42;7.60;99.90
7290;DHT22;63176;52.678;13.250;2023-03-14T15:36:26;7.50;99.90
7290;DHT22;63176;52.678;13.250;2023-03-14T15:38:53;7.10;99.90
7290;DHT22;63176;52.678;13.250;2023-03-14T15:41:20;6.90;99.90
7290;DHT22;63176;52.678;13.250;2023-03-14T15:43:46;6.70;99.90
7290;DHT22;63176;52.678;13.250;2023-03-14T15:46:12;6.60;99.90
7290;DHT22;63176;52.678;13.250;2023-03-14T15:48:38;6.40;99.90
7290;DHT22;63176;52.678;13.250;2023-03-14T15:51:04;6.30;99.90
7290;DHT22;63176;52.678;13.250;2023-03-14T15:53:30;6.10;99.90
7290;DHT22;63176;52.678;13.250;2023-03-14T15:55:55;6.00;99.90
7290;DHT22;63176;52.678;13.250;2023-03-14T15:58:21;5.80;99.90
7290;DHT22;63176;52.678;13.250;2023-03-14T16:00:47;5.70;99.90
7290;DHT22;63176;52.678;13.250;2023-03-14T16:03:13;5.60;99.90
7290;DHT22;63176;52.678;13.250;2023-03-14T16:05:39;5.70;99.90
7290;DHT22;63176;52.678;13.250;2023-03-14T16:08:05;5.60;99.90
7290;DHT22;63176;52.678;13.250;2023-03-14T16:10:31;5.30;99.90
7290;DHT22;63176;52.678;13.250;2023-03-14T16:12:57;5.30;99.90
7290;DHT22;63176;52.678;13.250;2023-03-14T16:15:23;5.00;99.90
7290;DHT22;63176;52.678;13.250;2023-03-14T16:17:54;4.90;99.90
7290;DHT22;63176;52.678;13.250;2023-03-14T16:20:21;4.90;99.90
7290;DHT22;63176;52.678;13.250;2023-03-14T16:22:47;4.50;99.90
7290;DHT22;63176;52.678;13.250;2023-03-14T16:25:13;4.50;99.90
7290;DHT22;63176;52.678;13.250;2023-03-14T16:27:39;4.10;99.90
7290;DHT22;63176;52.678;13.250;2023-03-14T16:30:07;4.20;99.90
7290;DHT22;63176;52.678;13.250;2023-03-14T16:32:33;4.10;99.90
7290;DHT22;63176;52.678;13.250;2023-03-14T16:34:59;4.10;99.90
7290;DHT22;63176;52.678;13.250;2023-03-14T16:37:25;4.00;99.90
7290;DHT22;63176;52.678;13.250;2023-03-14T16:39:52;4.00;99.90
7290;DHT22;63176;52.678;13.250;2023-03-14T16:42:18;4.00;99.90
7290;DHT22;63176;52.678;13.250;2023-03-14T16:44:44;3.80;99.90
7290;DHT22;63176;52.678;13.250;2023-03-14T16:47:10;4.00;99.90
7290;DHT22;63176;52.678;13.250;2023-03-14T16:49:35;3.90;99.90
7290;DHT22;63176;52.678;13.250;2023-03-14T16:52:01;3.90;99.90
7290;DHT22;63176;52.678;13.250;2023-03-14T16:54:27;4.00;99.90
7290;DHT22;63176;52.678;13.250;2023-03-14T16:56:53;3.90;99.90
7290;DHT22;63176;52.678;13.250;2023-03-14T16:59:19;3.90;99.90
7290;DHT22;63176;52.678;13.250;2023-03-14T17:01:45;4.00;99.90